sensor_id;sensor_type;location;lat;lon;timestamp;pressure;altitude;pressure_sealevel;temperature;humidity
6196;BME280;3131;42.630;23.382;2023-02-03T00:00:16;94597.45;;;2.29;100.00
6196;BME280;3131;42.630;23.382;2023-02-03T00:02:45;94595.00;;;2.27;100.00
6196;BME280;3131;42.630;23.382;2023-02-03T00:05:15;94613.94;;;2.18;100.00
6196;BME280;3131;42.630;23.382;2023-02-03T00:07:44;94599.42;;;2.19;100.00
6196;BME280;3131;42.630;23.382;2023-02-03T00:12:42;94591.46;;;2.08;100.00
6196;BME280;3131;42.630;23.382;2023-02-03T00:15:12;94597.13;;;2.00;100.00
6196;BME280;3131;42.630;23.382;2023-02-03T00:17:41;94593.85;;;1.84;100.00
6196;BME280;3131;42.630;23.382;2023-02-03T00:20:12;94608.45;;;1.80;100.00
6196;BME280;3131;42.630;23.382;2023-02-03T00:22:41;94614.02;;;1.75;100.00
6196;BME280;3131;42.630;23.382;2023-02-03T00:25:11;94604.91;;;1.74;100.00
6196;BME280;3131;42.630;23.382;2023-02-03T00:27:40;94598.29;;;1.75;100.00
6196;BME280;3131;42.630;23.382;2023-02-03T00:30:13;94613.30;;;1.72;100.00
6196;BME280;3131;42.630;23.382;2023-02-03T00:32:42;94618.88;;;1.65;100.00
6196;BME280;3131;42.630;23.382;2023-02-03T00:35:11;94617.41;;;1.58;100.00
6196;BME280;3131;42.630;23.382;2023-02-03T00:37:41;94616.22;;;1.56;100.00
6196;BME280;3131;42.630;23.382;2023-02-03T00:40:12;94609.60;;;1.55;100.00
6196;BME280;3131;42.630;23.382;2023-02-03T00:42:41;94615.50;;;1.53;100.00
6196;BME280;3131;42.630;23.382;2023-02-03T00:45:11;94618.80;;;1.53;100.00
6196;BME280;3131;42.630;23.382;2023-02-03T00:47:40;94619.69;;;1.51;100.00
6196;BME280;3131;42.630;23.382;2023-02-03T00:50:11;94625.13;;;1.49;100.00
6196;BME280;3131;42.630;23.382;2023-02-03T00:52:40;94625.88;;;1.52;100.00
6196;BME280;3131;42.630;23.382;2023-02-03T00:55:10;94633.19;;;1.57;100.00
6196;BME280;3131;42.630;23.382;2023-02-03T00:57:39;94620.78;;;1.55;100.00
6196;BME280;3131;42.630;23.382;2023-02-03T01:00:11;94623.67;;;1.56;100.00
6196;BME280;3131;42.630;23.382;2023-02-03T01:02:40;94629.37;;;1.60;100.00
6196;BME280;3131;42.630;23.382;2023-02-03T01:05:09;94633.27;;;1.69;100.00
6196;BME280;3131;42.630;23.382;2023-02-03T01:07:39;94634.60;;;1.66;100.00
6196;BME280;3131;42.630;23.382;2023-02-03T01:10:09;94636.28;;;1.65;100.00
6196;BME280;3131;42.630;23.382;2023-02-03T01:12:39;94643.30;;;1.66;100.00
6196;BME280;3131;42.630;23.382;2023-02-03T01:15:10;94660.36;;;1.63;100.00
6196;BME280;3131;42.630;23.382;2023-02-03T01:17:39;94644.28;;;1.60;100.00
6196;BME280;3131;42.630;23.382;2023-02-03T01:20:11;94637.09;;;1.51;100.00
6196;BME280;3131;42.630;23.382;2023-02-03T01:22:40;94647.98;;;1.47;100.00
6196;BME280;3131;42.630;23.382;2023-02-03T01:25:10;94642.88;;;1.36;100.00
6196;BME280;3131;42.630;23.382;2023-02-03T01:27:39;94643.77;;;1.34;100.00
6196;BME280;3131;42.630;23.382;2023-02-03T01:30:11;94633.84;;;1.34;100.00
6196;BME280;3131;42.630;23.382;2023-02-03T01:32:40;94637.16;;;1.33;100.00
6196;BME280;3131;42.630;23.382;2023-02-03T01:35:09;94635.97;;;1.31;100.00
6196;BME280;3131;42.630;23.382;2023-02-03T01:37:39;94628.06;;;1.33;100.00
6196;BME280;3131;42.630;23.382;2023-02-03T01:40:11;94631.78;;;1.33;100.00
6196;BME280;3131;42.630;23.382;2023-02-03T01:42:40;94641.31;;;1.32;100.00
6196;BME280;3131;42.630;23.382;2023-02-03T01:45:12;94641.31;;;1.32;100.00
6196;BME280;3131;42.630;23.382;2023-02-03T01:47:43;94651.23;;;1.34;100.00
6196;BME280;3131;42.630;23.382;2023-02-03T01:50:16;94657.47;;;1.32;100.00
6196;BME280;3131;42.630;23.382;2023-02-03T01:52:48;94663.76;;;1.29;100.00
6196;BME280;3131;42.630;23.382;2023-02-03T01:55:21;94664.98;;;1.31;100.00
6196;BME280;3131;42.630;23.382;2023-02-03T01:57:53;94666.68;;;1.29;100.00
6196;BME280;3131;42.630;23.382;2023-02-03T02:00:23;94656.39;;;1.26;100.00
6196;BME280;3131;42.630;23.382;2023-02-03T02:02:53;94665.08;;;1.26;100.00
6196;BME280;3131;42.630;23.382;2023-02-03T02:05:27;94660.52;;;1.27;100.00
6196;BME280;3131;42.630;23.382;2023-02-03T02:07:57;94669.62;;;1.27;100.00
6196;BME280;3131;42.630;23.382;2023-02-03T02:10:29;94670.63;;;1.21;100.00
6196;BME280;3131;42.630;23.382;2023-02-03T02:12:59;94677.94;;;1.26;100.00
6196;BME280;3131;42.630;23.382;2023-02-03T02:15:33;94679.83;;;1.18;100.00
6196;BME280;3131;42.630;23.382;2023-02-03T02:18:15;94670.48;;;1.26;100.00
6196;BME280;3131;42.630;23.382;2023-02-03T02:21:10;94674.67;;;1.24;100.00
6196;BME280;3131;42.630;23.382;2023-02-03T02:23:53;94676.67;;;1.27;100.00
6196;BME280;3131;42.630;23.382;2023-02-03T02:26:51;94679.18;;;1.26;100.00
6196;BME280;3131;42.630;23.382;2023-02-03T02:30:15;94679.97;;;1.28;100.00
6196;BME280;3131;42.630;23.382;2023-02-03T02:32:54;94679.16;;;1.27;100.00
6196;BME280;3131;42.630;23.382;2023-02-03T02:35:31;94685.45;;;1.24;100.00
6196;BME280;3131;42.630;23.382;2023-02-03T02:40:46;94682.38;;;1.31;100.00
6196;BME280;3131;42.630;23.382;2023-02-03T02:43:18;94698.09;;;1.31;100.00
6196;BME280;3131;42.630;23.382;2023-02-03T02:45:51;94693.36;;;1.22;100.00
6196;BME280;3131;42.630;23.382;2023-02-03T02:48:25;94677.59;;;1.23;100.00
6196;BME280;3131;42.630;23.382;2023-02-03T02:50:55;94682.64;;;1.20;100.00
6196;BME280;3131;42.630;23.382;2023-02-03T02:53:27;94685.12;;;1.20;100.00
6196;BME280;3131;42.630;23.382;2023-02-03T02:55:58;94675.10;;;1.23;100.00
6196;BME280;3131;42.630;23.382;2023-02-03T02:58:29;94679.77;;;1.19;100.00
6196;BME280;3131;42.630;23.382;2023-02-03T03:01:00;94671.94;;;1.18;100.00
6196;BME280;3131;42.630;23.382;2023-02-03T03:03:30;94689.17;;;1.24;100.00
6196;BME280;3131;42.630;23.382;2023-02-03T03:06:02;94674.34;;;1.21;100.00
6196;BME280;3131;42.630;23.382;2023-02-03T03:08:34;94689.36;;;1.16;100.00
6196;BME280;3131;42.630;23.382;2023-02-03T03:11:04;94692.81;;;1.11;100.00
6196;BME280;3131;42.630;23.382;2023-02-03T03:13:35;94690.33;;;1.11;100.00
6196;BME280;3131;42.630;23.382;2023-02-03T03:16:08;94690.81;;;1.09;100.00
6196;BME280;3131;42.630;23.382;2023-02-03T03:18:40;94702.88;;;1.06;100.00
6196;BME280;3131;42.630;23.382;2023-02-03T03:21:13;94692.56;;;1.05;100.00
6196;BME280;3131;42.630;23.382;2023-02-03T03:23:45;94693.75;;;1.07;100.00
6196;BME280;3131;42.630;23.382;2023-02-03T03:26:19;94702.06;;;1.06;100.00
6196;BME280;3131;42.630;23.382;2023-02-03T03:28:50;94709.59;;;1.03;100.00
6196;BME280;3131;42.630;23.382;2023-02-03T03:31:20;94710.78;;;1.04;100.00
6196;BME280;3131;42.630;23.382;2023-02-03T03:33:51;94708.38;;;1.01;100.00
6196;BME280;3131;42.630;23.382;2023-02-03T03:36:24;94716.66;;;1.02;100.00
6196;BME280;3131;42.630;23.382;2023-02-03T03:38:59;94715.42;;;1.02;100.00
6196;BME280;3131;42.630;23.382;2023-02-03T03:41:33;94733.03;;;1.09;100.00
6196;BME280;3131;42.630;23.382;2023-02-03T03:44:03;94717.83;;;1.05;100.00
6196;BME280;3131;42.630;23.382;2023-02-03T03:46:39;94735.54;;;1.07;100.00
6196;BME280;3131;42.630;23.382;2023-02-03T03:49:08;94737.95;;;1.10;100.00
6196;BME280;3131;42.630;23.382;2023-02-03T03:51:40;94740.86;;;1.10;100.00
6196;BME280;3131;42.630;23.382;2023-02-03T03:54:13;94745.81;;;1.11;100.00
6196;BME280;3131;42.630;23.382;2023-02-03T03:59:34;94752.25;;;1.19;100.00
6196;BME280;3131;42.630;23.382;2023-02-03T04:02:04;94750.27;;;1.15;100.00
6196;BME280;3131;42.630;23.382;2023-02-03T04:04:35;94749.33;;;1.19;100.00
6196;BME280;3131;42.630;23.382;2023-02-03T04:07:07;94760.05;;;1.21;100.00
6196;BME280;3131;42.630;23.382;2023-02-03T04:12:20;94760.66;;;1.29;100.00
6196;BME280;3131;42.630;23.382;2023-02-03T04:14:50;94764.52;;;1.25;100.00
6196;BME280;3131;42.630;23.382;2023-02-03T04:17:19;94769.43;;;1.26;100.00
6196;BME280;3131;42.630;23.382;2023-02-03T04:19:49;94767.08;;;1.22;100.00
6196;BME280;3131;42.630;23.382;2023-02-03T04:22:18;94766.56;;;1.25;100.00
6196;BME280;3131;42.630;23.382;2023-02-03T04:24:48;94776.96;;;1.23;100.00
6196;BME280;3131;42.630;23.382;2023-02-03T04:27:17;94780.30;;;1.22;100.00
6196;BME280;3131;42.630;23.382;2023-02-03T04:29:46;94791.54;;;1.21;100.00
6196;BME280;3131;42.630;23.382;2023-02-03T04:32:17;94787.38;;;1.21;100.00
6196;BME280;3131;42.630;23.382;2023-02-03T04:34:47;94783.07;;;1.28;100.00
6196;BME280;3131;42.630;23.382;2023-02-03T04:37:16;94785.22;;;1.24;100.00
6196;BME280;3131;42.630;23.382;2023-02-03T04:39:47;94783.95;;;1.25;100.00
6196;BME280;3131;42.630;23.382;2023-02-03T04:42:18;94796.76;;;1.26;100.00
6196;BME280;3131;42.630;23.382;2023-02-03T04:44:48;94785.66;;;1.23;100.00
6196;BME280;3131;42.630;23.382;2023-02-03T04:47:18;94795.67;;;1.20;100.00
6196;BME280;3131;42.630;23.382;2023-02-03T04:49:47;94789.58;;;1.15;100.00
6196;BME280;3131;42.630;23.382;2023-02-03T04:52:17;94796.80;;;1.08;100.00
6196;BME280;3131;42.630;23.382;2023-02-03T04:54:46;94810.86;;;1.08;100.00
6196;BME280;3131;42.630;23.382;2023-02-03T04:57:15;94810.03;;;1.09;100.00
6196;BME280;3131;42.630;23.382;2023-02-03T04:59:45;94809.23;;;1.07;100.00
6196;BME280;3131;42.630;23.382;2023-02-03T05:02:14;94821.20;;;1.09;100.00
6196;BME280;3131;42.630;23.382;2023-02-03T05:04:44;94817.94;;;1.07;100.00
6196;BME280;3131;42.630;23.382;2023-02-03T05:07:13;94817.50;;;1.07;100.00
6196;BME280;3131;42.630;23.382;2023-02-03T05:09:42;94818.72;;;1.09;100.00
6196;BME280;3131;42.630;23.382;2023-02-03T05:12:12;94834.80;;;1.12;100.00
6196;BME280;3131;42.630;23.382;2023-02-03T05:14:41;94818.67;;;1.10;100.00
6196;BME280;3131;42.630;23.382;2023-02-03T05:17:11;94833.14;;;1.11;100.00
6196;BME280;3131;42.630;23.382;2023-02-03T05:19:40;94834.30;;;1.15;100.00
6196;BME280;3131;42.630;23.382;2023-02-03T05:22:10;94833.55;;;1.12;100.00
6196;BME280;3131;42.630;23.382;2023-02-03T05:27:20;94850.17;;;1.26;100.00
6196;BME280;3131;42.630;23.382;2023-02-03T05:29:49;94849.00;;;1.23;100.00
6196;BME280;3131;42.630;23.382;2023-02-03T05:32:19;94857.83;;;1.19;100.00
6196;BME280;3131;42.630;23.382;2023-02-03T05:34:49;94847.03;;;1.20;100.00
6196;BME280;3131;42.630;23.382;2023-02-03T05:37:18;94838.81;;;1.18;100.00
6196;BME280;3131;42.630;23.382;2023-02-03T05:39:48;94841.81;;;1.12;100.00
6196;BME280;3131;42.630;23.382;2023-02-03T05:42:17;94841.37;;;1.14;100.00
6196;BME280;3131;42.630;23.382;2023-02-03T05:44:47;94842.09;;;1.00;100.00
6196;BME280;3131;42.630;23.382;2023-02-03T05:47:16;94834.84;;;0.92;100.00
6196;BME280;3131;42.630;23.382;2023-02-03T05:49:46;94840.75;;;0.87;100.00
6196;BME280;3131;42.630;23.382;2023-02-03T05:54:56;94847.97;;;0.78;100.00
6196;BME280;3131;42.630;23.382;2023-02-03T05:57:25;94863.79;;;0.74;100.00
6196;BME280;3131;42.630;23.382;2023-02-03T05:59:55;94847.59;;;0.77;100.00
6196;BME280;3131;42.630;23.382;2023-02-03T06:02:24;94857.14;;;0.76;100.00
6196;BME280;3131;42.630;23.382;2023-02-03T06:04:54;94845.92;;;0.78;100.00
6196;BME280;3131;42.630;23.382;2023-02-03T06:07:23;94853.41;;;0.76;100.00
6196;BME280;3131;42.630;23.382;2023-02-03T06:12:43;94856.16;;;0.82;100.00
6196;BME280;3131;42.630;23.382;2023-02-03T06:15:13;94853.50;;;0.72;100.00
6196;BME280;3131;42.630;23.382;2023-02-03T06:20:25;94861.11;;;0.83;100.00
6196;BME280;3131;42.630;23.382;2023-02-03T06:22:55;94848.77;;;0.80;100.00
6196;BME280;3131;42.630;23.382;2023-02-03T06:28:12;94866.05;;;1.03;100.00
6196;BME280;3131;42.630;23.382;2023-02-03T06:30:42;94872.21;;;1.04;100.00
6196;BME280;3131;42.630;23.382;2023-02-03T06:33:11;94874.55;;;1.12;100.00
6196;BME280;3131;42.630;23.382;2023-02-03T06:35:41;94887.27;;;1.16;100.00
6196;BME280;3131;42.630;23.382;2023-02-03T06:38:10;94881.80;;;1.20;100.00
6196;BME280;3131;42.630;23.382;2023-02-03T06:40:40;94883.78;;;1.23;100.00
6196;BME280;3131;42.630;23.382;2023-02-03T06:43:09;94886.63;;;1.26;100.00
6196;BME280;3131;42.630;23.382;2023-02-03T06:45:38;94876.17;;;1.31;100.00
6196;BME280;3131;42.630;23.382;2023-02-03T06:48:08;94892.19;;;1.37;100.00
6196;BME280;3131;42.630;23.382;2023-02-03T06:50:37;94891.25;;;1.41;100.00
6196;BME280;3131;42.630;23.382;2023-02-03T06:53:06;94891.61;;;1.44;100.00
6196;BME280;3131;42.630;23.382;2023-02-03T06:55:36;94901.00;;;1.49;100.00
6196;BME280;3131;42.630;23.382;2023-02-03T06:58:05;94887.99;;;1.55;100.00
6196;BME280;3131;42.630;23.382;2023-02-03T07:00:34;94895.00;;;1.57;100.00
6196;BME280;3131;42.630;23.382;2023-02-03T07:03:04;94893.25;;;1.61;100.00
6196;BME280;3131;42.630;23.382;2023-02-03T07:05:33;94894.83;;;1.65;100.00
6196;BME280;3131;42.630;23.382;2023-02-03T07:08:03;94898.12;;;1.66;100.00
6196;BME280;3131;42.630;23.382;2023-02-03T07:10:33;94900.84;;;1.73;100.00
6196;BME280;3131;42.630;23.382;2023-02-03T07:13:04;94875.16;;;1.72;100.00
6196;BME280;3131;42.630;23.382;2023-02-03T07:15:34;94890.23;;;1.82;100.00
6196;BME280;3131;42.630;23.382;2023-02-03T07:18:04;94895.44;;;1.73;100.00
6196;BME280;3131;42.630;23.382;2023-02-03T07:20:34;94896.15;;;1.78;100.00
6196;BME280;3131;42.630;23.382;2023-02-03T07:23:03;94902.08;;;1.89;100.00
6196;BME280;3131;42.630;23.382;2023-02-03T07:25:33;94894.98;;;1.92;100.00
6196;BME280;3131;42.630;23.382;2023-02-03T07:28:02;94906.95;;;1.94;100.00
6196;BME280;3131;42.630;23.382;2023-02-03T07:30:32;94910.05;;;2.02;100.00
6196;BME280;3131;42.630;23.382;2023-02-03T07:33:02;94905.19;;;2.14;100.00
6196;BME280;3131;42.630;23.382;2023-02-03T07:35:31;94925.75;;;2.20;100.00
6196;BME280;3131;42.630;23.382;2023-02-03T07:38:01;94926.10;;;2.23;100.00
6196;BME280;3131;42.630;23.382;2023-02-03T07:40:30;94932.24;;;2.26;100.00
6196;BME280;3131;42.630;23.382;2023-02-03T07:42:59;94934.22;;;2.29;100.00
6196;BME280;3131;42.630;23.382;2023-02-03T07:45:28;94943.37;;;2.44;100.00
6196;BME280;3131;42.630;23.382;2023-02-03T07:47:58;94936.00;;;2.55;100.00
6196;BME280;3131;42.630;23.382;2023-02-03T07:50:27;94943.59;;;2.66;100.00
6196;BME280;3131;42.630;23.382;2023-02-03T07:52:57;94951.89;;;2.51;100.00
6196;BME280;3131;42.630;23.382;2023-02-03T07:55:26;94943.36;;;2.60;100.00
6196;BME280;3131;42.630;23.382;2023-02-03T07:57:57;94948.82;;;2.73;100.00
6196;BME280;3131;42.630;23.382;2023-02-03T08:00:27;94943.43;;;2.72;100.00
6196;BME280;3131;42.630;23.382;2023-02-03T08:02:56;94939.97;;;3.87;100.00
6196;BME280;3131;42.630;23.382;2023-02-03T08:05:25;94969.83;;;5.10;100.00
6196;BME280;3131;42.630;23.382;2023-02-03T08:07:56;94933.62;;;7.05;98.32
6196;BME280;3131;42.630;23.382;2023-02-03T08:10:26;94947.58;;;8.44;78.46
6196;BME280;3131;42.630;23.382;2023-02-03T08:12:56;94938.69;;;8.94;69.20
6196;BME280;3131;42.630;23.382;2023-02-03T08:15:25;94949.38;;;9.77;64.17
6196;BME280;3131;42.630;23.382;2023-02-03T08:17:54;94953.84;;;9.72;61.59
6196;BME280;3131;42.630;23.382;2023-02-03T08:20:24;94962.89;;;10.43;58.90
6196;BME280;3131;42.630;23.382;2023-02-03T08:22:53;94936.78;;;9.38;59.04
6196;BME280;3131;42.630;23.382;2023-02-03T08:25:23;94983.38;;;8.65;60.88
6196;BME280;3131;42.630;23.382;2023-02-03T08:27:53;94973.56;;;9.09;58.15
6196;BME280;3131;42.630;23.382;2023-02-03T08:30:22;94958.36;;;8.79;60.05
6196;BME280;3131;42.630;23.382;2023-02-03T08:32:51;94959.34;;;8.68;61.90
6196;BME280;3131;42.630;23.382;2023-02-03T08:35:21;94956.86;;;10.67;54.68
6196;BME280;3131;42.630;23.382;2023-02-03T08:37:50;94961.45;;;11.04;52.21
6196;BME280;3131;42.630;23.382;2023-02-03T08:40:19;94972.77;;;11.25;50.70
6196;BME280;3131;42.630;23.382;2023-02-03T08:42:49;94977.02;;;11.18;48.77
6196;BME280;3131;42.630;23.382;2023-02-03T08:45:19;94976.47;;;11.27;47.44
6196;BME280;3131;42.630;23.382;2023-02-03T08:47:48;94977.22;;;10.93;48.57
6196;BME280;3131;42.630;23.382;2023-02-03T08:50:18;94963.09;;;11.32;47.62
6196;BME280;3131;42.630;23.382;2023-02-03T08:52:47;94976.93;;;11.26;48.22
6196;BME280;3131;42.630;23.382;2023-02-03T08:55:17;94979.09;;;11.94;46.33
6196;BME280;3131;42.630;23.382;2023-02-03T08:57:46;94979.46;;;10.55;48.73
6196;BME280;3131;42.630;23.382;2023-02-03T09:00:16;94978.88;;;9.59;51.83
6196;BME280;3131;42.630;23.382;2023-02-03T09:02:46;94979.41;;;9.57;53.13
6196;BME280;3131;42.630;23.382;2023-02-03T09:05:15;94995.40;;;9.95;51.47
6196;BME280;3131;42.630;23.382;2023-02-03T09:08:07;95005.69;;;9.99;51.59
6196;BME280;3131;42.630;23.382;2023-02-03T09:10:37;94993.03;;;10.31;51.97
6196;BME280;3131;42.630;23.382;2023-02-03T09:13:06;94981.54;;;9.17;55.58
6196;BME280;3131;42.630;23.382;2023-02-03T09:15:35;94979.58;;;10.82;52.22
6196;BME280;3131;42.630;23.382;2023-02-03T09:18:05;94996.03;;;11.30;49.01
6196;BME280;3131;42.630;23.382;2023-02-03T09:20:34;94973.23;;;9.86;51.81
6196;BME280;3131;42.630;23.382;2023-02-03T09:23:04;94957.50;;;10.19;54.08
6196;BME280;3131;42.630;23.382;2023-02-03T09:25:34;94956.20;;;10.35;52.73
6196;BME280;3131;42.630;23.382;2023-02-03T09:28:03;94944.59;;;10.68;50.37
6196;BME280;3131;42.630;23.382;2023-02-03T09:30:33;94947.50;;;9.42;54.75
6196;BME280;3131;42.630;23.382;2023-02-03T09:33:02;94953.86;;;9.33;56.30
6196;BME280;3131;42.630;23.382;2023-02-03T09:35:31;94948.05;;;9.08;57.79
6196;BME280;3131;42.630;23.382;2023-02-03T09:38:01;94962.75;;;9.54;56.17
6196;BME280;3131;42.630;23.382;2023-02-03T09:40:33;94946.63;;;8.62;60.35
6196;BME280;3131;42.630;23.382;2023-02-03T09:43:15;94960.92;;;9.26;57.75
6196;BME280;3131;42.630;23.382;2023-02-03T09:45:45;94962.98;;;8.87;58.06
6196;BME280;3131;42.630;23.382;2023-02-03T09:48:17;94988.76;;;8.74;57.35
6196;BME280;3131;42.630;23.382;2023-02-03T09:50:47;94939.52;;;8.70;56.86
6196;BME280;3131;42.630;23.382;2023-02-03T09:53:24;94963.60;;;9.39;56.28
6196;BME280;3131;42.630;23.382;2023-02-03T09:55:54;94971.66;;;9.53;53.80
6196;BME280;3131;42.630;23.382;2023-02-03T09:58:24;94967.69;;;9.49;52.54
6196;BME280;3131;42.630;23.382;2023-02-03T10:00:56;94982.86;;;7.43;55.78
6196;BME280;3131;42.630;23.382;2023-02-03T10:03:30;94984.16;;;5.63;65.11
6196;BME280;3131;42.630;23.382;2023-02-03T10:06:08;94968.44;;;4.45;70.00
6196;BME280;3131;42.630;23.382;2023-02-03T10:12:05;94926.37;;;5.89;71.33
6196;BME280;3131;42.630;23.382;2023-02-03T10:14:45;94967.06;;;7.14;66.66
6196;BME280;3131;42.630;23.382;2023-02-03T10:17:23;94957.89;;;6.05;64.91
6196;BME280;3131;42.630;23.382;2023-02-03T10:19:57;94961.05;;;7.63;62.79
6196;BME280;3131;42.630;23.382;2023-02-03T10:22:28;94954.81;;;8.74;56.64
6196;BME280;3131;42.630;23.382;2023-02-03T10:25:02;94961.96;;;8.57;54.20
6196;BME280;3131;42.630;23.382;2023-02-03T10:27:32;94956.95;;;8.31;58.85
6196;BME280;3131;42.630;23.382;2023-02-03T10:30:05;94957.70;;;11.31;49.03
6196;BME280;3131;42.630;23.382;2023-02-03T10:32:35;94955.46;;;9.02;52.58
6196;BME280;3131;42.630;23.382;2023-02-03T10:35:10;94952.36;;;8.05;55.84
6196;BME280;3131;42.630;23.382;2023-02-03T10:37:42;94938.64;;;9.50;54.08
6196;BME280;3131;42.630;23.382;2023-02-03T10:40:13;94947.42;;;12.41;45.42
6196;BME280;3131;42.630;23.382;2023-02-03T10:42:46;94953.98;;;9.85;46.80
6196;BME280;3131;42.630;23.382;2023-02-03T10:45:38;94955.56;;;9.33;47.79
6196;BME280;3131;42.630;23.382;2023-02-03T10:48:12;94959.21;;;10.19;46.54
6196;BME280;3131;42.630;23.382;2023-02-03T10:50:45;94944.92;;;8.63;48.74
6196;BME280;3131;42.630;23.382;2023-02-03T10:53:24;94959.86;;;7.06;54.74
6196;BME280;3131;42.630;23.382;2023-02-03T10:56:02;94954.81;;;6.97;56.53
6196;BME280;3131;42.630;23.382;2023-02-03T10:58:34;94942.44;;;5.73;60.89
6196;BME280;3131;42.630;23.382;2023-02-03T11:01:11;94958.91;;;5.47;64.62
6196;BME280;3131;42.630;23.382;2023-02-03T11:03:43;94957.55;;;5.16;68.66
6196;BME280;3131;42.630;23.382;2023-02-03T11:06:14;94949.98;;;4.84;72.01
6196;BME280;3131;42.630;23.382;2023-02-03T11:11:27;94954.18;;;4.23;72.35
6196;BME280;3131;42.630;23.382;2023-02-03T11:14:14;94946.55;;;4.14;74.87
6196;BME280;3131;42.630;23.382;2023-02-03T11:16:45;94950.02;;;4.47;71.69
6196;BME280;3131;42.630;23.382;2023-02-03T11:19:16;94963.06;;;4.79;68.80
6196;BME280;3131;42.630;23.382;2023-02-03T11:21:49;94955.57;;;5.02;63.62
6196;BME280;3131;42.630;23.382;2023-02-03T11:24:21;94945.63;;;5.67;60.02
6196;BME280;3131;42.630;23.382;2023-02-03T11:26:52;94938.36;;;5.71;59.65
6196;BME280;3131;42.630;23.382;2023-02-03T11:29:24;94943.96;;;8.41;52.33
6196;BME280;3131;42.630;23.382;2023-02-03T11:31:56;94922.62;;;7.35;52.25
6196;BME280;3131;42.630;23.382;2023-02-03T11:34:28;94934.59;;;6.73;57.47
6196;BME280;3131;42.630;23.382;2023-02-03T11:37:04;94921.36;;;5.89;60.13
6196;BME280;3131;42.630;23.382;2023-02-03T11:39:34;94915.48;;;5.38;59.35
6196;BME280;3131;42.630;23.382;2023-02-03T11:42:12;94912.34;;;5.10;61.19
6196;BME280;3131;42.630;23.382;2023-02-03T11:44:43;94917.86;;;6.92;57.09
6196;BME280;3131;42.630;23.382;2023-02-03T11:47:14;94904.73;;;8.03;50.21
6196;BME280;3131;42.630;23.382;2023-02-03T11:50:03;94902.67;;;9.71;45.38
6196;BME280;3131;42.630;23.382;2023-02-03T11:53:06;94900.11;;;10.32;42.83
6196;BME280;3131;42.630;23.382;2023-02-03T11:56:00;94898.12;;;10.30;43.99
6196;BME280;3131;42.630;23.382;2023-02-03T11:58:54;94908.49;;;12.11;39.31
6196;BME280;3131;42.630;23.382;2023-02-03T12:04:22;94900.63;;;12.28;38.13
6196;BME280;3131;42.630;23.382;2023-02-03T12:07:15;94910.93;;;10.41;40.56
6196;BME280;3131;42.630;23.382;2023-02-03T12:12:41;94895.48;;;8.04;47.08
6196;BME280;3131;42.630;23.382;2023-02-03T12:15:37;94923.55;;;7.86;47.00
6196;BME280;3131;42.630;23.382;2023-02-03T12:18:14;94909.88;;;7.57;47.00
6196;BME280;3131;42.630;23.382;2023-02-03T12:20:51;94909.66;;;8.64;43.97
6196;BME280;3131;42.630;23.382;2023-02-03T12:23:29;94905.98;;;8.94;43.91
6196;BME280;3131;42.630;23.382;2023-02-03T12:26:04;94905.88;;;11.52;39.26
6196;BME280;3131;42.630;23.382;2023-02-03T12:28:44;94901.23;;;11.39;37.79
6196;BME280;3131;42.630;23.382;2023-02-03T12:31:19;94900.98;;;9.49;40.21
6196;BME280;3131;42.630;23.382;2023-02-03T12:33:51;94898.81;;;9.50;40.92
6196;BME280;3131;42.630;23.382;2023-02-03T12:36:23;94907.10;;;7.72;42.81
6196;BME280;3131;42.630;23.382;2023-02-03T12:38:56;94899.95;;;6.62;45.85
6196;BME280;3131;42.630;23.382;2023-02-03T12:41:28;94881.91;;;5.96;47.35
6196;BME280;3131;42.630;23.382;2023-02-03T12:44:03;94875.41;;;7.07;45.67
6196;BME280;3131;42.630;23.382;2023-02-03T12:46:35;94873.22;;;8.31;42.89
6196;BME280;3131;42.630;23.382;2023-02-03T12:49:11;94860.03;;;8.99;42.01
6196;BME280;3131;42.630;23.382;2023-02-03T12:51:42;94875.06;;;10.21;39.74
6196;BME280;3131;42.630;23.382;2023-02-03T12:54:20;94859.22;;;10.34;39.86
6196;BME280;3131;42.630;23.382;2023-02-03T12:56:50;94842.84;;;13.39;36.18
6196;BME280;3131;42.630;23.382;2023-02-03T12:59:24;94852.48;;;13.34;35.02
6196;BME280;3131;42.630;23.382;2023-02-03T13:01:57;94860.45;;;14.96;33.18
6196;BME280;3131;42.630;23.382;2023-02-03T13:04:32;94854.21;;;16.33;30.75
6196;BME280;3131;42.630;23.382;2023-02-03T13:07:06;94863.81;;;13.47;32.96
6196;BME280;3131;42.630;23.382;2023-02-03T13:09:37;94862.59;;;13.10;34.48
6196;BME280;3131;42.630;23.382;2023-02-03T13:12:11;94870.02;;;11.40;36.82
6196;BME280;3131;42.630;23.382;2023-02-03T13:14:45;94870.14;;;10.34;38.12
6196;BME280;3131;42.630;23.382;2023-02-03T13:17:17;94862.16;;;9.07;41.16
6196;BME280;3131;42.630;23.382;2023-02-03T13:19:51;94867.55;;;9.98;40.71
6196;BME280;3131;42.630;23.382;2023-02-03T13:22:21;94852.36;;;10.79;40.01
6196;BME280;3131;42.630;23.382;2023-02-03T13:24:53;94844.23;;;10.88;38.93
6196;BME280;3131;42.630;23.382;2023-02-03T13:27:38;94849.58;;;11.10;39.32
6196;BME280;3131;42.630;23.382;2023-02-03T13:30:52;94845.61;;;11.93;38.44
6196;BME280;3131;42.630;23.382;2023-02-03T13:33:46;94862.17;;;11.97;37.88
6196;BME280;3131;42.630;23.382;2023-02-03T13:42:18;94858.77;;;6.30;53.86
6196;BME280;3131;42.630;23.382;2023-02-03T13:44:52;94857.77;;;7.97;51.22
6196;BME280;3131;42.630;23.382;2023-02-03T13:50:18;94840.95;;;10.93;42.30
6196;BME280;3131;42.630;23.382;2023-02-03T13:52:52;94835.22;;;10.91;41.68
6196;BME280;3131;42.630;23.382;2023-02-03T13:55:33;94851.69;;;11.24;41.13
6196;BME280;3131;42.630;23.382;2023-02-03T13:58:05;94849.09;;;10.05;43.03
6196;BME280;3131;42.630;23.382;2023-02-03T14:01:04;94847.84;;;9.91;43.94
6196;BME280;3131;42.630;23.382;2023-02-03T14:03:45;94850.23;;;7.27;48.96
6196;BME280;3131;42.630;23.382;2023-02-03T14:06:54;94855.49;;;5.99;54.39
6196;BME280;3131;42.630;23.382;2023-02-03T14:09:40;94847.28;;;5.02;61.36
6196;BME280;3131;42.630;23.382;2023-02-03T14:12:31;94857.03;;;5.30;64.36
6196;BME280;3131;42.630;23.382;2023-02-03T14:15:22;94858.65;;;6.52;60.28
6196;BME280;3131;42.630;23.382;2023-02-03T14:18:02;94862.49;;;7.33;56.45
6196;BME280;3131;42.630;23.382;2023-02-03T14:20:42;94861.13;;;8.13;53.65
6196;BME280;3131;42.630;23.382;2023-02-03T14:23:18;94836.17;;;8.59;50.64
6196;BME280;3131;42.630;23.382;2023-02-03T14:25:50;94858.14;;;9.65;49.16
6196;BME280;3131;42.630;23.382;2023-02-03T14:28:22;94854.73;;;11.02;45.04